sensor_id;sensor_type;location;lat;lon;timestamp;temperature;humidity
80743;SHT31;70142;50.894;6.052;2023-08-20T00:01:56;20.34;82.85
80743;SHT31;70142;50.894;6.052;2023-08-20T00:04:36;20.47;82.33
80743;SHT31;70142;50.894;6.052;2023-08-20T00:07:10;20.64;81.39
80743;SHT31;70142;50.894;6.052;2023-08-20T00:09:43;20.73;81.27
80743;SHT31;70142;50.894;6.052;2023-08-20T00:12:16;20.76;81.30
80743;SHT31;70142;50.894;6.052;2023-08-20T00:14:53;20.67;81.64
80743;SHT31;70142;50.894;6.052;2023-08-20T00:17:27;20.62;81.61
80743;SHT31;70142;50.894;6.052;2023-08-20T00:20:03;20.63;81.77
80743;SHT31;70142;50.894;6.052;2023-08-20T00:22:42;20.64;81.67
80743;SHT31;70142;50.894;6.052;2023-08-20T00:25:17;20.66;81.62
80743;SHT31;70142;50.894;6.052;2023-08-20T00:27:51;20.63;81.65
80743;SHT31;70142;50.894;6.052;2023-08-20T00:30:24;20.57;81.83
80743;SHT31;70142;50.894;6.052;2023-08-20T00:32:59;20.43;82.43
80743;SHT31;70142;50.894;6.052;2023-08-20T00:35:34;20.50;82.14
80743;SHT31;70142;50.894;6.052;2023-08-20T00:38:07;20.37;82.19
80743;SHT31;70142;50.894;6.052;2023-08-20T00:40:41;20.37;82.24
80743;SHT31;70142;50.894;6.052;2023-08-20T00:43:14;20.32;82.25
80743;SHT31;70142;50.894;6.052;2023-08-20T00:45:50;20.26;82.34
80743;SHT31;70142;50.894;6.052;2023-08-20T00:48:26;20.28;82.61
80743;SHT31;70142;50.894;6.052;2023-08-20T00:51:01;20.22;82.66
80743;SHT31;70142;50.894;6.052;2023-08-20T00:53:35;20.18;83.17
80743;SHT31;70142;50.894;6.052;2023-08-20T00:56:09;20.16;83.56
80743;SHT31;70142;50.894;6.052;2023-08-20T00:58:44;20.16;83.36
80743;SHT31;70142;50.894;6.052;2023-08-20T01:01:18;20.25;82.90
80743;SHT31;70142;50.894;6.052;2023-08-20T01:03:51;20.26;82.62
80743;SHT31;70142;50.894;6.052;2023-08-20T01:06:37;20.22;82.72
80743;SHT31;70142;50.894;6.052;2023-08-20T01:09:23;20.23;82.72
80743;SHT31;70142;50.894;6.052;2023-08-20T01:12:03;20.12;82.68
80743;SHT31;70142;50.894;6.052;2023-08-20T01:14:36;19.88;83.37
80743;SHT31;70142;50.894;6.052;2023-08-20T01:17:09;19.92;83.31
80743;SHT31;70142;50.894;6.052;2023-08-20T01:19:43;19.82;83.32
80743;SHT31;70142;50.894;6.052;2023-08-20T01:22:52;19.86;83.47
80743;SHT31;70142;50.894;6.052;2023-08-20T01:25:45;20.02;82.82
80743;SHT31;70142;50.894;6.052;2023-08-20T01:28:26;19.88;83.24
80743;SHT31;70142;50.894;6.052;2023-08-20T01:31:01;19.79;83.07
80743;SHT31;70142;50.894;6.052;2023-08-20T01:33:35;19.89;82.97
80743;SHT31;70142;50.894;6.052;2023-08-20T01:36:09;19.89;82.59
80743;SHT31;70142;50.894;6.052;2023-08-20T01:38:42;19.71;83.18
80743;SHT31;70142;50.894;6.052;2023-08-20T01:41:16;19.58;83.92
80743;SHT31;70142;50.894;6.052;2023-08-20T01:43:50;19.54;84.48
80743;SHT31;70142;50.894;6.052;2023-08-20T01:46:23;19.51;84.83
80743;SHT31;70142;50.894;6.052;2023-08-20T01:48:59;19.68;84.30
80743;SHT31;70142;50.894;6.052;2023-08-20T01:51:32;19.96;83.98
80743;SHT31;70142;50.894;6.052;2023-08-20T01:54:06;20.06;83.51
80743;SHT31;70142;50.894;6.052;2023-08-20T01:56:39;20.09;83.94
80743;SHT31;70142;50.894;6.052;2023-08-20T01:59:14;20.16;84.16
80743;SHT31;70142;50.894;6.052;2023-08-20T02:01:48;20.37;83.34
80743;SHT31;70142;50.894;6.052;2023-08-20T02:04:21;20.42;83.39
80743;SHT31;70142;50.894;6.052;2023-08-20T02:06:55;20.52;83.56
80743;SHT31;70142;50.894;6.052;2023-08-20T02:09:28;20.54;83.65
80743;SHT31;70142;50.894;6.052;2023-08-20T02:12:01;20.69;83.27
80743;SHT31;70142;50.894;6.052;2023-08-20T02:14:36;20.84;82.93
80743;SHT31;70142;50.894;6.052;2023-08-20T02:17:09;20.90;82.64
80743;SHT31;70142;50.894;6.052;2023-08-20T02:19:44;21.01;82.44
80743;SHT31;70142;50.894;6.052;2023-08-20T02:22:17;21.03;82.20
80743;SHT31;70142;50.894;6.052;2023-08-20T02:24:52;21.00;82.33
80743;SHT31;70142;50.894;6.052;2023-08-20T02:27:25;20.95;82.19
80743;SHT31;70142;50.894;6.052;2023-08-20T02:30:00;20.88;82.17
80743;SHT31;70142;50.894;6.052;2023-08-20T02:32:33;20.80;82.47
80743;SHT31;70142;50.894;6.052;2023-08-20T02:35:07;20.73;82.76
80743;SHT31;70142;50.894;6.052;2023-08-20T02:37:41;20.73;82.77
80743;SHT31;70142;50.894;6.052;2023-08-20T02:40:15;20.76;82.63
80743;SHT31;70142;50.894;6.052;2023-08-20T02:42:49;20.70;82.83
80743;SHT31;70142;50.894;6.052;2023-08-20T02:45:23;20.77;82.55
80743;SHT31;70142;50.894;6.052;2023-08-20T02:47:57;20.87;82.33
80743;SHT31;70142;50.894;6.052;2023-08-20T02:50:30;20.94;81.85
80743;SHT31;70142;50.894;6.052;2023-08-20T02:53:04;20.81;82.32
80743;SHT31;70142;50.894;6.052;2023-08-20T02:55:37;20.74;82.35
80743;SHT31;70142;50.894;6.052;2023-08-20T02:58:10;20.81;82.31
80743;SHT31;70142;50.894;6.052;2023-08-20T03:00:45;20.90;81.94
80743;SHT31;70142;50.894;6.052;2023-08-20T03:03:18;20.80;82.15
80743;SHT31;70142;50.894;6.052;2023-08-20T03:05:52;20.76;82.41
80743;SHT31;70142;50.894;6.052;2023-08-20T03:08:25;20.83;82.44
80743;SHT31;70142;50.894;6.052;2023-08-20T03:10:58;20.77;82.58
80743;SHT31;70142;50.894;6.052;2023-08-20T03:13:32;20.70;82.67
80743;SHT31;70142;50.894;6.052;2023-08-20T03:16:06;20.70;82.97
80743;SHT31;70142;50.894;6.052;2023-08-20T03:18:40;20.69;82.92
80743;SHT31;70142;50.894;6.052;2023-08-20T03:21:13;20.66;83.10
80743;SHT31;70142;50.894;6.052;2023-08-20T03:23:46;20.63;83.55
80743;SHT31;70142;50.894;6.052;2023-08-20T03:26:20;20.63;83.37
80743;SHT31;70142;50.894;6.052;2023-08-20T03:28:53;20.50;83.69
80743;SHT31;70142;50.894;6.052;2023-08-20T03:31:27;20.56;83.70
80743;SHT31;70142;50.894;6.052;2023-08-20T03:34:01;20.66;82.92
80743;SHT31;70142;50.894;6.052;2023-08-20T03:36:37;20.63;82.86
80743;SHT31;70142;50.894;6.052;2023-08-20T03:39:10;20.63;82.87
80743;SHT31;70142;50.894;6.052;2023-08-20T03:41:43;20.46;83.13
80743;SHT31;70142;50.894;6.052;2023-08-20T03:44:19;20.39;83.36
80743;SHT31;70142;50.894;6.052;2023-08-20T03:46:55;20.36;83.59
80743;SHT31;70142;50.894;6.052;2023-08-20T03:49:30;20.56;82.93
80743;SHT31;70142;50.894;6.052;2023-08-20T03:52:05;20.53;82.79
80743;SHT31;70142;50.894;6.052;2023-08-20T03:54:38;20.43;83.22
80743;SHT31;70142;50.894;6.052;2023-08-20T03:57:12;20.22;83.73
80743;SHT31;70142;50.894;6.052;2023-08-20T03:59:45;20.06;83.92
80743;SHT31;70142;50.894;6.052;2023-08-20T04:02:20;20.02;84.42
80743;SHT31;70142;50.894;6.052;2023-08-20T04:04:53;20.05;83.91
80743;SHT31;70142;50.894;6.052;2023-08-20T04:07:29;19.95;83.86
80743;SHT31;70142;50.894;6.052;2023-08-20T04:10:02;19.95;83.83
80743;SHT31;70142;50.894;6.052;2023-08-20T04:12:36;19.93;83.76
80743;SHT31;70142;50.894;6.052;2023-08-20T04:15:09;19.88;84.11
80743;SHT31;70142;50.894;6.052;2023-08-20T04:17:45;19.83;84.16
80743;SHT31;70142;50.894;6.052;2023-08-20T04:20:20;19.83;84.10
80743;SHT31;70142;50.894;6.052;2023-08-20T04:22:55;19.83;84.08
80743;SHT31;70142;50.894;6.052;2023-08-20T04:25:28;19.79;83.93
80743;SHT31;70142;50.894;6.052;2023-08-20T04:28:01;19.91;83.79
80743;SHT31;70142;50.894;6.052;2023-08-20T04:30:35;19.92;83.42
80743;SHT31;70142;50.894;6.052;2023-08-20T04:33:11;19.93;83.57
80743;SHT31;70142;50.894;6.052;2023-08-20T04:35:48;19.79;83.77
80743;SHT31;70142;50.894;6.052;2023-08-20T04:38:23;19.61;84.13
80743;SHT31;70142;50.894;6.052;2023-08-20T04:40:56;19.75;84.15
80743;SHT31;70142;50.894;6.052;2023-08-20T04:43:30;19.68;83.93
80743;SHT31;70142;50.894;6.052;2023-08-20T04:46:04;19.58;84.30
80743;SHT31;70142;50.894;6.052;2023-08-20T04:48:39;19.68;83.95
80743;SHT31;70142;50.894;6.052;2023-08-20T04:51:12;19.67;83.85
80743;SHT31;70142;50.894;6.052;2023-08-20T04:53:46;19.68;83.97
80743;SHT31;70142;50.894;6.052;2023-08-20T04:56:19;19.62;84.06
80743;SHT31;70142;50.894;6.052;2023-08-20T04:58:55;19.54;84.42
80743;SHT31;70142;50.894;6.052;2023-08-20T05:02:04;19.37;84.75
80743;SHT31;70142;50.894;6.052;2023-08-20T05:05:02;19.34;84.97
80743;SHT31;70142;50.894;6.052;2023-08-20T05:07:36;19.35;84.79
80743;SHT31;70142;50.894;6.052;2023-08-20T05:10:09;19.48;84.60
80743;SHT31;70142;50.894;6.052;2023-08-20T05:12:42;19.53;84.52
80743;SHT31;70142;50.894;6.052;2023-08-20T05:15:16;19.64;84.21
80743;SHT31;70142;50.894;6.052;2023-08-20T05:17:49;19.72;83.97
80743;SHT31;70142;50.894;6.052;2023-08-20T05:20:24;19.89;83.50
80743;SHT31;70142;50.894;6.052;2023-08-20T05:22:59;19.95;83.63
80743;SHT31;70142;50.894;6.052;2023-08-20T05:25:32;20.00;83.50
80743;SHT31;70142;50.894;6.052;2023-08-20T05:28:05;20.04;83.54
80743;SHT31;70142;50.894;6.052;2023-08-20T05:30:40;20.12;83.21
80743;SHT31;70142;50.894;6.052;2023-08-20T05:33:13;20.22;83.19
80743;SHT31;70142;50.894;6.052;2023-08-20T05:35:47;20.32;83.15
80743;SHT31;70142;50.894;6.052;2023-08-20T05:38:21;20.46;82.92
80743;SHT31;70142;50.894;6.052;2023-08-20T05:40:55;20.54;82.87
80743;SHT31;70142;50.894;6.052;2023-08-20T05:43:28;20.63;82.31
80743;SHT31;70142;50.894;6.052;2023-08-20T05:46:02;20.90;81.52
80743;SHT31;70142;50.894;6.052;2023-08-20T05:48:35;20.97;81.20
80743;SHT31;70142;50.894;6.052;2023-08-20T05:51:11;21.28;80.19
80743;SHT31;70142;50.894;6.052;2023-08-20T05:53:44;21.85;78.62
80743;SHT31;70142;50.894;6.052;2023-08-20T05:56:17;22.26;77.74
80743;SHT31;70142;50.894;6.052;2023-08-20T05:58:51;22.70;75.87
80743;SHT31;70142;50.894;6.052;2023-08-20T06:01:24;23.14;73.76
80743;SHT31;70142;50.894;6.052;2023-08-20T06:03:58;23.38;72.84
80743;SHT31;70142;50.894;6.052;2023-08-20T06:06:32;23.43;72.89
80743;SHT31;70142;50.894;6.052;2023-08-20T06:09:06;23.61;72.24
80743;SHT31;70142;50.894;6.052;2023-08-20T06:11:41;23.52;71.47
80743;SHT31;70142;50.894;6.052;2023-08-20T06:14:14;23.62;71.97
80743;SHT31;70142;50.894;6.052;2023-08-20T06:16:47;23.62;70.48
80743;SHT31;70142;50.894;6.052;2023-08-20T06:19:20;23.58;70.53
80743;SHT31;70142;50.894;6.052;2023-08-20T06:21:55;23.52;70.21
80743;SHT31;70142;50.894;6.052;2023-08-20T06:24:28;23.73;70.37
80743;SHT31;70142;50.894;6.052;2023-08-20T06:27:02;23.87;69.74
80743;SHT31;70142;50.894;6.052;2023-08-20T06:29:35;24.05;69.42
80743;SHT31;70142;50.894;6.052;2023-08-20T06:32:09;24.28;68.94
80743;SHT31;70142;50.894;6.052;2023-08-20T06:34:42;24.54;68.06
80743;SHT31;70142;50.894;6.052;2023-08-20T06:37:17;24.79;66.93
80743;SHT31;70142;50.894;6.052;2023-08-20T06:39:50;24.89;67.39
80743;SHT31;70142;50.894;6.052;2023-08-20T06:42:23;25.02;66.83
80743;SHT31;70142;50.894;6.052;2023-08-20T06:44:56;25.16;67.07
80743;SHT31;70142;50.894;6.052;2023-08-20T06:47:29;25.29;66.45
80743;SHT31;70142;50.894;6.052;2023-08-20T06:50:03;25.32;66.45
80743;SHT31;70142;50.894;6.052;2023-08-20T06:52:39;25.36;66.43
80743;SHT31;70142;50.894;6.052;2023-08-20T06:55:14;25.41;65.77
80743;SHT31;70142;50.894;6.052;2023-08-20T06:57:48;25.32;65.82
80743;SHT31;70142;50.894;6.052;2023-08-20T07:00:21;25.62;64.71
80743;SHT31;70142;50.894;6.052;2023-08-20T07:02:54;25.92;64.01
80743;SHT31;70142;50.894;6.052;2023-08-20T07:05:28;25.92;64.23
80743;SHT31;70142;50.894;6.052;2023-08-20T07:08:03;26.04;63.55
80743;SHT31;70142;50.894;6.052;2023-08-20T07:10:36;25.46;64.94
80743;SHT31;70142;50.894;6.052;2023-08-20T07:13:09;24.69;66.74
80743;SHT31;70142;50.894;6.052;2023-08-20T07:15:42;24.21;68.06
80743;SHT31;70142;50.894;6.052;2023-08-20T07:18:16;24.16;68.37
80743;SHT31;70142;50.894;6.052;2023-08-20T07:20:51;24.10;68.55
80743;SHT31;70142;50.894;6.052;2023-08-20T07:23:26;23.89;69.54
80743;SHT31;70142;50.894;6.052;2023-08-20T07:26:06;23.89;69.41
80743;SHT31;70142;50.894;6.052;2023-08-20T07:28:40;23.86;69.33
80743;SHT31;70142;50.894;6.052;2023-08-20T07:31:33;24.23;69.00
80743;SHT31;70142;50.894;6.052;2023-08-20T07:34:06;24.14;69.03
80743;SHT31;70142;50.894;6.052;2023-08-20T07:36:44;24.44;68.44
80743;SHT31;70142;50.894;6.052;2023-08-20T07:39:20;24.69;68.33
80743;SHT31;70142;50.894;6.052;2023-08-20T07:41:53;24.89;67.50
80743;SHT31;70142;50.894;6.052;2023-08-20T07:44:26;24.99;67.95
80743;SHT31;70142;50.894;6.052;2023-08-20T07:47:00;25.21;66.92
80743;SHT31;70142;50.894;6.052;2023-08-20T07:49:33;25.38;66.40
80743;SHT31;70142;50.894;6.052;2023-08-20T07:52:07;25.86;65.17
80743;SHT31;70142;50.894;6.052;2023-08-20T07:54:41;26.10;64.98
80743;SHT31;70142;50.894;6.052;2023-08-20T07:57:16;26.33;65.17
80743;SHT31;70142;50.894;6.052;2023-08-20T07:59:49;26.59;63.39
80743;SHT31;70142;50.894;6.052;2023-08-20T08:02:22;26.72;63.68
80743;SHT31;70142;50.894;6.052;2023-08-20T08:04:56;26.98;63.08
80743;SHT31;70142;50.894;6.052;2023-08-20T08:07:29;26.84;63.08
80743;SHT31;70142;50.894;6.052;2023-08-20T08:10:04;26.68;63.27
80743;SHT31;70142;50.894;6.052;2023-08-20T08:12:38;26.91;62.51
80743;SHT31;70142;50.894;6.052;2023-08-20T08:15:11;27.12;62.42
80743;SHT31;70142;50.894;6.052;2023-08-20T08:17:45;26.81;62.71
80743;SHT31;70142;50.894;6.052;2023-08-20T08:20:18;26.69;63.94
80743;SHT31;70142;50.894;6.052;2023-08-20T08:22:51;26.98;63.43
80743;SHT31;70142;50.894;6.052;2023-08-20T08:25:28;27.43;62.14
80743;SHT31;70142;50.894;6.052;2023-08-20T08:28:01;27.86;60.55
80743;SHT31;70142;50.894;6.052;2023-08-20T08:30:35;27.89;60.31
80743;SHT31;70142;50.894;6.052;2023-08-20T08:33:08;27.94;60.50
80743;SHT31;70142;50.894;6.052;2023-08-20T08:35:41;27.93;60.44
80743;SHT31;70142;50.894;6.052;2023-08-20T08:38:14;28.28;59.68
80743;SHT31;70142;50.894;6.052;2023-08-20T08:40:49;28.37;58.81
80743;SHT31;70142;50.894;6.052;2023-08-20T08:43:22;28.51;58.81
80743;SHT31;70142;50.894;6.052;2023-08-20T08:46:01;28.79;58.95
80743;SHT31;70142;50.894;6.052;2023-08-20T08:48:37;28.37;58.51
80743;SHT31;70142;50.894;6.052;2023-08-20T08:51:13;28.55;58.85
80743;SHT31;70142;50.894;6.052;2023-08-20T08:53:47;28.83;57.77
80743;SHT31;70142;50.894;6.052;2023-08-20T08:56:21;28.40;59.04
80743;SHT31;70142;50.894;6.052;2023-08-20T08:58:57;28.66;57.58
80743;SHT31;70142;50.894;6.052;2023-08-20T09:01:30;28.80;57.56
80743;SHT31;70142;50.894;6.052;2023-08-20T09:04:05;28.68;58.84
80743;SHT31;70142;50.894;6.052;2023-08-20T09:06:45;28.62;59.31
80743;SHT31;70142;50.894;6.052;2023-08-20T09:09:21;28.51;59.45
80743;SHT31;70142;50.894;6.052;2023-08-20T09:11:55;27.81;60.98
80743;SHT31;70142;50.894;6.052;2023-08-20T09:14:30;28.37;59.72
80743;SHT31;70142;50.894;6.052;2023-08-20T09:17:03;27.97;60.86
80743;SHT31;70142;50.894;6.052;2023-08-20T09:19:36;27.83;60.57
80743;SHT31;70142;50.894;6.052;2023-08-20T09:22:11;28.40;59.87
80743;SHT31;70142;50.894;6.052;2023-08-20T09:24:52;28.76;58.65
80743;SHT31;70142;50.894;6.052;2023-08-20T09:27:26;28.79;58.61
80743;SHT31;70142;50.894;6.052;2023-08-20T09:29:59;28.29;59.24
80743;SHT31;70142;50.894;6.052;2023-08-20T09:32:33;28.01;60.54
80743;SHT31;70142;50.894;6.052;2023-08-20T09:35:06;27.97;60.38
80743;SHT31;70142;50.894;6.052;2023-08-20T09:37:40;28.10;59.94
80743;SHT31;70142;50.894;6.052;2023-08-20T09:40:16;28.52;58.48
80743;SHT31;70142;50.894;6.052;2023-08-20T09:42:51;28.42;58.39
80743;SHT31;70142;50.894;6.052;2023-08-20T09:45:28;28.86;57.84
80743;SHT31;70142;50.894;6.052;2023-08-20T09:48:06;28.47;58.21
80743;SHT31;70142;50.894;6.052;2023-08-20T09:50:43;28.12;59.29
80743;SHT31;70142;50.894;6.052;2023-08-20T09:53:26;29.09;57.49
80743;SHT31;70142;50.894;6.052;2023-08-20T09:56:04;29.77;56.49
80743;SHT31;70142;50.894;6.052;2023-08-20T09:58:44;29.88;54.99
80743;SHT31;70142;50.894;6.052;2023-08-20T10:01:17;29.60;55.73
80743;SHT31;70142;50.894;6.052;2023-08-20T10:03:51;29.97;55.04
80743;SHT31;70142;50.894;6.052;2023-08-20T10:06:24;29.50;55.93
80743;SHT31;70142;50.894;6.052;2023-08-20T10:08:59;29.19;56.96
80743;SHT31;70142;50.894;6.052;2023-08-20T10:11:32;28.68;58.58
80743;SHT31;70142;50.894;6.052;2023-08-20T10:14:07;28.61;58.49
80743;SHT31;70142;50.894;6.052;2023-08-20T10:16:40;28.27;59.53
80743;SHT31;70142;50.894;6.052;2023-08-20T10:19:15;28.69;57.90
80743;SHT31;70142;50.894;6.052;2023-08-20T10:21:52;28.74;58.12
80743;SHT31;70142;50.894;6.052;2023-08-20T10:24:25;28.20;59.29
80743;SHT31;70142;50.894;6.052;2023-08-20T10:27:09;27.94;59.15
80743;SHT31;70142;50.894;6.052;2023-08-20T10:29:45;28.08;59.10
80743;SHT31;70142;50.894;6.052;2023-08-20T10:32:18;28.47;57.97
80743;SHT31;70142;50.894;6.052;2023-08-20T10:34:57;29.33;56.06
80743;SHT31;70142;50.894;6.052;2023-08-20T10:37:30;30.29;54.06
80743;SHT31;70142;50.894;6.052;2023-08-20T10:40:05;30.55;53.67
80743;SHT31;70142;50.894;6.052;2023-08-20T10:42:41;31.17;52.22
80743;SHT31;70142;50.894;6.052;2023-08-20T10:45:16;31.71;50.71
80743;SHT31;70142;50.894;6.052;2023-08-20T10:47:50;31.33;51.39
80743;SHT31;70142;50.894;6.052;2023-08-20T10:50:29;31.17;52.52
80743;SHT31;70142;50.894;6.052;2023-08-20T10:53:03;30.55;53.95
80743;SHT31;70142;50.894;6.052;2023-08-20T10:55:37;30.41;54.75
80743;SHT31;70142;50.894;6.052;2023-08-20T10:58:11;30.69;53.08
80743;SHT31;70142;50.894;6.052;2023-08-20T11:01:16;30.83;53.27
80743;SHT31;70142;50.894;6.052;2023-08-20T11:03:51;30.75;51.96
80743;SHT31;70142;50.894;6.052;2023-08-20T11:06:24;30.39;52.76
80743;SHT31;70142;50.894;6.052;2023-08-20T11:09:03;30.58;52.28
80743;SHT31;70142;50.894;6.052;2023-08-20T11:11:37;30.86;51.35
80743;SHT31;70142;50.894;6.052;2023-08-20T11:14:12;31.94;49.11
80743;SHT31;70142;50.894;6.052;2023-08-20T11:16:48;31.98;50.28
80743;SHT31;70142;50.894;6.052;2023-08-20T11:19:23;30.65;53.71
80743;SHT31;70142;50.894;6.052;2023-08-20T11:21:57;30.31;54.18
80743;SHT31;70142;50.894;6.052;2023-08-20T11:24:30;29.68;55.57
80743;SHT31;70142;50.894;6.052;2023-08-20T11:27:04;29.71;54.93
80743;SHT31;70142;50.894;6.052;2023-08-20T11:29:41;30.63;53.97
80743;SHT31;70142;50.894;6.052;2023-08-20T11:32:16;30.09;54.06
80743;SHT31;70142;50.894;6.052;2023-08-20T11:34:49;30.65;52.81
80743;SHT31;70142;50.894;6.052;2023-08-20T11:37:23;30.72;53.25
80743;SHT31;70142;50.894;6.052;2023-08-20T11:39:57;30.94;53.84
80743;SHT31;70142;50.894;6.052;2023-08-20T11:42:30;31.60;50.99
80743;SHT31;70142;50.894;6.052;2023-08-20T11:45:05;30.99;52.15
80743;SHT31;70142;50.894;6.052;2023-08-20T11:47:40;29.60;54.79
80743;SHT31;70142;50.894;6.052;2023-08-20T11:50:14;29.76;54.97
80743;SHT31;70142;50.894;6.052;2023-08-20T11:52:47;31.07;51.58
80743;SHT31;70142;50.894;6.052;2023-08-20T11:55:24;30.45;51.77
80743;SHT31;70142;50.894;6.052;2023-08-20T11:57:57;29.91;53.06
80743;SHT31;70142;50.894;6.052;2023-08-20T12:00:31;30.46;51.43
80743;SHT31;70142;50.894;6.052;2023-08-20T12:03:08;30.58;51.35
80743;SHT31;70142;50.894;6.052;2023-08-20T12:05:42;29.96;52.29
80743;SHT31;70142;50.894;6.052;2023-08-20T12:08:16;30.97;50.41
80743;SHT31;70142;50.894;6.052;2023-08-20T12:10:50;30.48;51.30
80743;SHT31;70142;50.894;6.052;2023-08-20T12:13:23;29.82;52.76
80743;SHT31;70142;50.894;6.052;2023-08-20T12:15:56;30.05;52.01
80743;SHT31;70142;50.894;6.052;2023-08-20T12:18:31;31.06;50.95
80743;SHT31;70142;50.894;6.052;2023-08-20T12:21:04;31.60;49.63
80743;SHT31;70142;50.894;6.052;2023-08-20T12:23:38;31.85;48.74
80743;SHT31;70142;50.894;6.052;2023-08-20T12:26:11;32.07;49.18
80743;SHT31;70142;50.894;6.052;2023-08-20T12:28:44;31.89;48.58
80743;SHT31;70142;50.894;6.052;2023-08-20T12:31:17;32.70;46.80
80743;SHT31;70142;50.894;6.052;2023-08-20T12:33:52;32.55;46.72
80743;SHT31;70142;50.894;6.052;2023-08-20T12:36:25;31.45;50.22
80743;SHT31;70142;50.894;6.052;2023-08-20T12:38:58;31.12;49.96
80743;SHT31;70142;50.894;6.052;2023-08-20T12:41:32;31.35;49.67
80743;SHT31;70142;50.894;6.052;2023-08-20T12:44:05;31.03;51.17
80743;SHT31;70142;50.894;6.052;2023-08-20T12:46:39;29.81;53.39
80743;SHT31;70142;50.894;6.052;2023-08-20T12:49:13;30.82;51.92
80743;SHT31;70142;50.894;6.052;2023-08-20T12:51:47;30.56;51.99
80743;SHT31;70142;50.894;6.052;2023-08-20T12:54:20;30.87;50.79
80743;SHT31;70142;50.894;6.052;2023-08-20T12:56:53;30.45;51.03
80743;SHT31;70142;50.894;6.052;2023-08-20T12:59:26;30.05;52.96
80743;SHT31;70142;50.894;6.052;2023-08-20T13:02:00;29.45;53.37
80743;SHT31;70142;50.894;6.052;2023-08-20T13:04:36;29.58;53.41
80743;SHT31;70142;50.894;6.052;2023-08-20T13:07:11;29.46;53.89
80743;SHT31;70142;50.894;6.052;2023-08-20T13:09:45;30.01;50.72
80743;SHT31;70142;50.894;6.052;2023-08-20T13:12:23;30.72;49.48
80743;SHT31;70142;50.894;6.052;2023-08-20T13:14:59;31.37;49.69
80743;SHT31;70142;50.894;6.052;2023-08-20T13:17:34;31.81;48.83
80743;SHT31;70142;50.894;6.052;2023-08-20T13:20:10;32.83;47.09
80743;SHT31;70142;50.894;6.052;2023-08-20T13:22:43;33.17;44.30
80743;SHT31;70142;50.894;6.052;2023-08-20T13:25:17;33.13;44.92
80743;SHT31;70142;50.894;6.052;2023-08-20T13:27:50;32.76;44.71
80743;SHT31;70142;50.894;6.052;2023-08-20T13:30:23;32.73;44.83
80743;SHT31;70142;50.894;6.052;2023-08-20T13:32:56;33.17;43.22
80743;SHT31;70142;50.894;6.052;2023-08-20T13:35:31;33.02;45.01
80743;SHT31;70142;50.894;6.052;2023-08-20T13:38:04;32.69;44.44
80743;SHT31;70142;50.894;6.052;2023-08-20T13:40:37;32.69;45.15
80743;SHT31;70142;50.894;6.052;2023-08-20T13:43:10;32.01;44.26
80743;SHT31;70142;50.894;6.052;2023-08-20T13:45:44;31.74;46.21
80743;SHT31;70142;50.894;6.052;2023-08-20T13:48:17;32.60;43.08
80743;SHT31;70142;50.894;6.052;2023-08-20T13:50:51;33.17;40.94
80743;SHT31;70142;50.894;6.052;2023-08-20T13:53:25;33.43;41.22
80743;SHT31;70142;50.894;6.052;2023-08-20T13:55:58;33.54;41.84
80743;SHT31;70142;50.894;6.052;2023-08-20T13:58:31;33.88;42.45
80743;SHT31;70142;50.894;6.052;2023-08-20T14:01:05;34.11;41.21
80743;SHT31;70142;50.894;6.052;2023-08-20T14:03:40;34.18;41.53
80743;SHT31;70142;50.894;6.052;2023-08-20T14:06:15;33.50;42.13
80743;SHT31;70142;50.894;6.052;2023-08-20T14:08:48;33.27;41.31
80743;SHT31;70142;50.894;6.052;2023-08-20T14:11:22;33.77;41.38
80743;SHT31;70142;50.894;6.052;2023-08-20T14:13:55;33.57;42.46
80743;SHT31;70142;50.894;6.052;2023-08-20T14:16:28;32.69;42.30
80743;SHT31;70142;50.894;6.052;2023-08-20T14:19:01;31.77;44.46
80743;SHT31;70142;50.894;6.052;2023-08-20T14:21:36;32.38;44.30
80743;SHT31;70142;50.894;6.052;2023-08-20T14:24:09;33.33;42.71
80743;SHT31;70142;50.894;6.052;2023-08-20T14:26:42;33.95;41.76
80743;SHT31;70142;50.894;6.052;2023-08-20T14:29:16;34.42;40.13
80743;SHT31;70142;50.894;6.052;2023-08-20T14:31:49;33.71;40.48
80743;SHT31;70142;50.894;6.052;2023-08-20T14:34:22;32.65;43.47
80743;SHT31;70142;50.894;6.052;2023-08-20T14:36:57;31.98;44.70
80743;SHT31;70142;50.894;6.052;2023-08-20T14:39:30;32.11;45.33
80743;SHT31;70142;50.894;6.052;2023-08-20T14:42:04;32.59;44.58
80743;SHT31;70142;50.894;6.052;2023-08-20T14:44:37;33.24;43.82
80743;SHT31;70142;50.894;6.052;2023-08-20T14:47:11;33.50;43.00
80743;SHT31;70142;50.894;6.052;2023-08-20T14:49:44;33.44;42.95
80743;SHT31;70142;50.894;6.052;2023-08-20T14:52:18;33.47;43.15
80743;SHT31;70142;50.894;6.052;2023-08-20T14:54:52;33.77;42.50
80743;SHT31;70142;50.894;6.052;2023-08-20T14:57:25;33.58;42.43
80743;SHT31;70142;50.894;6.052;2023-08-20T15:00:12;33.54;41.92
80743;SHT31;70142;50.894;6.052;2023-08-20T15:02:46;34.12;42.74
80743;SHT31;70142;50.894;6.052;2023-08-20T15:05:20;34.42;40.77
80743;SHT31;70142;50.894;6.052;2023-08-20T15:07:55;34.12;40.68
80743;SHT31;70142;50.894;6.052;2023-08-20T15:10:28;33.00;43.38
80743;SHT31;70142;50.894;6.052;2023-08-20T15:13:02;32.43;43.76
80743;SHT31;70142;50.894;6.052;2023-08-20T15:15:35;32.60;44.61
80743;SHT31;70142;50.894;6.052;2023-08-20T15:18:08;33.04;42.93
80743;SHT31;70142;50.894;6.052;2023-08-20T15:20:42;33.55;42.16
80743;SHT31;70142;50.894;6.052;2023-08-20T15:23:16;33.57;42.28
80743;SHT31;70142;50.894;6.052;2023-08-20T15:25:51;33.11;42.96
80743;SHT31;70142;50.894;6.052;2023-08-20T15:28:27;32.72;44.15
80743;SHT31;70142;50.894;6.052;2023-08-20T15:31:01;32.40;43.31
80743;SHT31;70142;50.894;6.052;2023-08-20T15:33:35;32.75;43.17
80743;SHT31;70142;50.894;6.052;2023-08-20T15:36:08;33.30;41.49
80743;SHT31;70142;50.894;6.052;2023-08-20T15:38:43;33.57;41.66
80743;SHT31;70142;50.894;6.052;2023-08-20T15:41:16;33.87;41.61
80743;SHT31;70142;50.894;6.052;2023-08-20T15:43:49;33.77;42.01
80743;SHT31;70142;50.894;6.052;2023-08-20T15:46:23;33.37;42.76
80743;SHT31;70142;50.894;6.052;2023-08-20T15:48:56;33.16;42.89
80743;SHT31;70142;50.894;6.052;2023-08-20T15:51:30;33.02;43.03
80743;SHT31;70142;50.894;6.052;2023-08-20T15:54:05;33.20;42.70
80743;SHT31;70142;50.894;6.052;2023-08-20T15:56:39;32.90;43.42
80743;SHT31;70142;50.894;6.052;2023-08-20T15:59:13;32.58;44.12
80743;SHT31;70142;50.894;6.052;2023-08-20T16:01:46;31.70;45.10
80743;SHT31;70142;50.894;6.052;2023-08-20T16:04:20;31.31;45.89
80743;SHT31;70142;50.894;6.052;2023-08-20T16:06:53;31.77;45.50
80743;SHT31;70142;50.894;6.052;2023-08-20T16:09:28;31.78;44.50
80743;SHT31;70142;50.894;6.052;2023-08-20T16:12:14;31.78;43.97
80743;SHT31;70142;50.894;6.052;2023-08-20T16:14:47;31.75;44.41
80743;SHT31;70142;50.894;6.052;2023-08-20T16:17:20;31.94;43.80